»·PEaware :: WJA520 KBUR-KLAS

WJA520 :: KBUR-KLAS

FLIGHT INFORMATION

Flight Status: Arrived
Operator:
Westjet Airlines
More flights by this operator :: More flights under this callsign
Pilot: Alex C. (14758)
Aircraft: BOMBARDIER BD-100 CHALLENGER 300
(CL30)
More flights by this aircraft type
Origin: KBUR Bob Hope-Burbank
United States
Destination: KLAS McCarran Intl
United States
More flights between these airports :: More routes between these airports
Route: +VNY3 DAG KEPEC6
File this flight plan on PilotEdge
Remarks: I-5 Rating
Altitude:
(Current/Filed)
27,000ft
Speed:
(Current/Filed)
480kts
Departed: 07-Jan-18 05:23 PM
Arrived: 07-Jan-18 06:18 PM
Distance/Time
Traveled:
193nm/0:55
Distance/Time
To Go:
Arrived

Flight Plot

Page will automatically refresh every two minutes.

Flight plan parsing failed; only flown route is shown


Map Options




Map Legend


Flown Route
Filed Route
Departure Airport
Arrival Airport
Navaid (VOR, NDB)
Fix

Horizontal Profiles

Position Reports

Time Latitude Longitude Heading Altitude Ground
Speed
07-Jan-18 17:19 34.212207 -118.361654 92 784ft 0kts
07-Jan-18 17:20 34.212207 -118.361654 92 784ft 0kts
07-Jan-18 17:21 34.212207 -118.361654 92 784ft 0kts
07-Jan-18 17:22 34.212207 -118.361654 92 784ft 0kts
07-Jan-18 17:23 34.212207 -118.361654 92 784ft 0kts
07-Jan-18 17:24 34.212207 -118.361654 92 784ft 0kts
07-Jan-18 17:25 34.212207 -118.361654 92 784ft 0kts
07-Jan-18 17:26 34.212207 -118.361654 92 784ft 0kts
07-Jan-18 17:27 34.212207 -118.361654 92 784ft 0kts
07-Jan-18 17:28 34.212210 -118.361363 85 783ft 8kts
07-Jan-18 17:29 34.206871 -118.358971 167 784ft 114kts
07-Jan-18 17:30 34.179347 -118.351650 172 1642ft 234kts
07-Jan-18 17:31 34.141788 -118.371828 225 4752ft 271kts
07-Jan-18 17:32 34.123841 -118.428719 295 8785ft 279kts
07-Jan-18 17:33 34.168884 -118.454863 358 10769ft 339kts
07-Jan-18 17:34 34.236150 -118.456666 356 13849ft 358kts
07-Jan-18 17:35 34.316961 -118.458737 355 16966ft 378kts
07-Jan-18 17:36 34.391869 -118.428128 44 19480ft 412kts
07-Jan-18 17:37 34.461747 -118.330454 49 22103ft 436kts
07-Jan-18 17:38 34.532753 -118.220828 50 24476ft 457kts
07-Jan-18 17:39 34.598395 -118.116536 50 26379ft 475kts
07-Jan-18 17:40 34.637843 -117.977119 81 27154ft 513kts
07-Jan-18 17:41 34.656179 -117.831305 83 27143ft 518kts
07-Jan-18 17:42 34.679842 -117.705678 73 27151ft 518kts
07-Jan-18 17:43 34.711091 -117.581274 73 27160ft 518kts
07-Jan-18 17:44 34.746327 -117.442463 72 27161ft 519kts
07-Jan-18 17:45 34.784385 -117.292255 73 26842ft 515kts
07-Jan-18 17:46 34.822315 -117.141791 73 25717ft 492kts
07-Jan-18 17:47 34.860217 -116.990524 73 24945ft 483kts
07-Jan-18 17:48 34.897615 -116.840470 73 24191ft 476kts
07-Jan-18 17:49 34.935013 -116.689528 73 24150ft 476kts
07-Jan-18 17:50 34.989989 -116.551808 46 24152ft 453kts
07-Jan-18 17:51 35.071316 -116.444285 44 22682ft 443kts
07-Jan-18 17:52 35.152486 -116.341533 44 21619ft 435kts
07-Jan-18 17:53 35.233113 -116.240178 44 20206ft 422kts
07-Jan-18 17:54 35.309582 -116.143960 44 19011ft 393kts
07-Jan-18 17:55 35.381094 -116.053785 45 17832ft 372kts
07-Jan-18 17:56 35.449116 -115.967794 45 16656ft 354kts
07-Jan-18 17:57 35.512536 -115.887419 45 15510ft 337kts
07-Jan-18 17:58 35.566088 -115.819400 45 14491ft 325kts
07-Jan-18 17:59 35.625564 -115.743692 45 13074ft 313kts
07-Jan-18 18:00 35.684240 -115.668825 45 13010ft 312kts
07-Jan-18 18:01 35.740525 -115.594052 48 12998ft 293kts
07-Jan-18 18:02 35.791055 -115.523417 48 12193ft 282kts
07-Jan-18 18:03 35.839256 -115.455779 48 11352ft 278kts
07-Jan-18 18:04 35.886661 -115.389090 48 10512ft 274kts
07-Jan-18 18:05 35.930154 -115.327754 48 9727ft 269kts
07-Jan-18 18:06 35.969052 -115.272850 48 9035ft 266kts
07-Jan-18 18:07 36.003084 -115.224731 48 9009ft 261kts
07-Jan-18 18:08 36.011764 -115.171970 91 8646ft 244kts
07-Jan-18 18:09 36.010027 -115.115948 92 8048ft 240kts
07-Jan-18 18:10 36.007093 -115.050229 93 7578ft 239kts
07-Jan-18 18:11 36.004467 -114.988587 92 6817ft 230kts
07-Jan-18 18:12 36.002053 -114.921954 92 6012ft 218kts
07-Jan-18 18:13 35.999871 -114.862888 92 5998ft 181kts
07-Jan-18 18:14 36.021371 -114.822569 1 6020ft 188kts
07-Jan-18 18:15 36.048022 -114.865551 291 5448ft 188kts
07-Jan-18 18:16 36.062069 -114.911383 291 5002ft 186kts
07-Jan-18 18:17 36.073419 -114.953093 271 4893ft 161kts
07-Jan-18 18:18 36.073538 -114.988865 270 4360ft 159kts
07-Jan-18 18:19 36.073636 -115.019760 270 3875ft 158kts
07-Jan-18 18:20 36.073644 -115.051220 270 3374ft 156kts
07-Jan-18 18:21 36.073653 -115.081377 270 2885ft 137kts
07-Jan-18 18:22 36.073661 -115.109601 270 2454ft 130kts
07-Jan-18 18:23 36.073687 -115.136940 270 2148ft 73kts
07-Jan-18 18:24 36.074340 -115.145120 295 2147ft 28kts
07-Jan-18 18:25 36.074794 -115.146192 298 2147ft 0kts
07-Jan-18 18:26 36.077611 -115.146789 311 2148ft 18kts
07-Jan-18 18:27 36.078012 -115.151188 271 2148ft 24kts
07-Jan-18 18:28 36.078014 -115.158370 270 2148ft 33kts
07-Jan-18 18:29 36.078009 -115.164817 269 2147ft 30kts
07-Jan-18 18:30 36.078952 -115.170685 25 2147ft 23kts
07-Jan-18 18:31 36.081686 -115.170626 272 2148ft 0kts
07-Jan-18 18:32 36.081686 -115.170626 272 2148ft 0kts
07-Jan-18 18:33 36.081686 -115.170626 272 2148ft 0kts

Navigation Log

Ident Type
Flight plan parsing failed, navigation log unavailable